Time;durP1;ratioP1;P1;durP2;ratioP2;P2;SDS_P1;SDS_P2;PMS_P1;PMS_P2;Temp;Humidity;BMP_temperature;BMP_pressure;BME280_temperature;BME280_humidity;BME280_pressure;Samples;Min_cycle;Max_cycle;Signal;HPM_P1;HPM_P2
2023/07/01 00:00:34;;;;;;;12.93;8.70;;;;;;;17.69;nan;99908.31;5038080;28;20023;-69
2023/07/01 00:03:03;;;;;;;12.63;8.35;;;;;;;17.59;nan;99904.69;5037366;28;20483;-68
2023/07/01 00:05:29;;;;;;;12.40;8.20;;;;;;;17.54;nan;99911.94;5034290;28;20009;-69
2023/07/01 00:07:54;;;;;;;10.95;8.32;;;;;;;17.51;nan;99909.84;5035344;28;20419;-69
2023/07/01 00:10:19;;;;;;;14.60;7.68;;;;;;;17.37;nan;99896.41;5036268;28;20107;-70
2023/07/01 00:12:45;;;;;;;12.18;7.65;;;;;;;17.37;nan;99907.84;5039740;28;20075;-69
2023/07/01 00:15:10;;;;;;;10.35;7.75;;;;;;;17.28;nan;99892.78;5035927;28;20029;-69
2023/07/01 00:17:36;;;;;;;11.35;7.30;;;;;;;17.25;nan;99894.13;5032183;28;20069;-69
2023/07/01 00:20:01;;;;;;;9.32;6.63;;;;;;;17.19;nan;99884.59;5040608;28;20565;-69
2023/07/01 00:22:26;;;;;;;11.73;7.85;;;;;;;17.22;nan;99897.38;5036332;28;20016;-69
2023/07/01 00:24:52;;;;;;;10.13;7.53;;;;;;;17.14;nan;99882.81;5035174;28;20074;-69
2023/07/01 00:27:17;;;;;;;12.85;7.40;;;;;;;17.10;nan;99892.41;5039284;28;20036;-69
2023/07/01 00:29:43;;;;;;;11.27;8.07;;;;;;;16.96;nan;99873.66;5037223;28;20018;-69
2023/07/01 00:32:09;;;;;;;7.93;7.05;;;;;;;16.90;nan;99869.44;5042957;28;20167;-69
2023/07/01 00:34:35;;;;;;;10.35;7.10;;;;;;;16.92;nan;99880.59;5036749;28;20021;-69
2023/07/01 00:37:00;;;;;;;11.52;7.32;;;;;;;16.90;nan;99892.59;5037502;28;20102;-69
2023/07/01 00:39:25;;;;;;;8.32;7.15;;;;;;;16.74;nan;99882.06;5036201;28;20026;-68
2023/07/01 00:41:54;;;;;;;9.48;7.05;;;;;;;16.69;nan;99879.44;5033501;28;20476;-68
2023/07/01 00:44:21;;;;;;;11.98;6.88;;;;;;;16.71;nan;99879.97;5034553;28;20033;-68
2023/07/01 00:46:46;;;;;;;10.48;7.18;;;;;;;16.66;nan;99872.00;5033497;28;20033;-69
2023/07/01 00:49:11;;;;;;;9.35;7.13;;;;;;;16.63;nan;99875.22;5035910;28;20893;-68
2023/07/01 00:51:37;;;;;;;10.20;7.05;;;;;;;16.54;nan;99876.88;5032234;28;20017;-68
2023/07/01 00:54:03;;;;;;;13.88;7.40;;;;;;;16.49;nan;99872.41;5035911;28;20105;-68
2023/07/01 00:56:29;;;;;;;14.65;7.88;;;;;;;16.54;nan;99879.53;5032329;28;20097;-69
2023/07/01 00:58:54;;;;;;;8.98;6.70;;;;;;;16.50;nan;99874.00;5036294;28;20028;-69
2023/07/01 01:01:26;;;;;;;9.32;6.95;;;;;;;16.41;nan;99869.56;5035856;28;20036;-68
2023/07/01 01:04:33;;;;;;;11.00;6.68;;;;;;;16.49;nan;99882.25;5034843;28;20025;-69
2023/07/01 01:07:03;;;;;;;11.80;6.65;;;;;;;16.36;nan;99859.75;5035021;28;20037;-69
2023/07/01 01:09:42;;;;;;;9.38;7.05;;;;;;;16.34;nan;99867.97;5036041;28;20024;-69
2023/07/01 01:12:10;;;;;;;10.75;6.97;;;;;;;16.27;nan;99862.19;5065816;28;20365;-68
2023/07/01 01:14:38;;;;;;;8.25;6.68;;;;;;;16.31;nan;99868.53;5033536;28;20025;-68
2023/07/01 01:17:11;;;;;;;10.55;6.95;;;;;;;16.22;nan;99864.88;5034934;28;20021;-69
2023/07/01 01:19:42;;;;;;;13.23;6.97;;;;;;;16.30;nan;99880.22;5032480;28;20025;-69
2023/07/01 01:22:29;;;;;;;11.93;7.25;;;;;;;16.27;nan;99878.13;5037913;28;20020;-69
2023/07/01 01:24:57;;;;;;;7.63;6.28;;;;;;;16.26;nan;99868.59;5031517;28;20082;-69
2023/07/01 01:27:28;;;;;;;8.55;6.90;;;;;;;16.19;nan;99865.44;5034159;28;20028;-69
2023/07/01 01:29:54;;;;;;;8.05;6.88;;;;;;;16.17;nan;99862.25;5036541;28;20017;-68
2023/07/01 01:32:19;;;;;;;8.48;6.65;;;;;;;16.11;nan;99850.88;5039044;28;20361;-69
2023/07/01 01:34:46;;;;;;;11.68;7.10;;;;;;;16.13;nan;99858.56;5036430;28;20047;-68
2023/07/01 01:37:29;;;;;;;8.32;6.57;;;;;;;16.13;nan;99859.34;5037544;28;20013;-69
2023/07/01 01:40:09;;;;;;;8.93;7.03;;;;;;;16.10;nan;99856.47;5033041;28;20025;-68
2023/07/01 01:42:37;;;;;;;8.95;7.10;;;;;;;16.13;nan;99863.88;5036480;28;20020;-68
2023/07/01 01:45:04;;;;;;;8.60;6.85;;;;;;;16.09;nan;99858.31;5038364;28;20018;-68
2023/07/01 01:47:30;;;;;;;9.68;6.65;;;;;;;16.13;nan;99863.88;5047535;28;20398;-68
2023/07/01 01:50:02;;;;;;;12.02;7.22;;;;;;;16.09;nan;99865.47;5041404;28;20128;-68
2023/07/01 01:52:28;;;;;;;12.25;7.22;;;;;;;16.06;nan;99858.06;5040230;28;20100;-68
2023/07/01 01:54:56;;;;;;;8.77;6.88;;;;;;;15.97;nan;99847.25;5042301;28;20024;-68
2023/07/01 01:57:23;;;;;;;10.10;6.50;;;;;;;15.98;nan;99853.34;5038645;28;20017;-69
2023/07/01 01:59:48;;;;;;;8.68;6.60;;;;;;;15.95;nan;99855.47;5038413;28;20036;-69
2023/07/01 02:02:14;;;;;;;9.02;6.57;;;;;;;15.90;nan;99846.75;5041675;28;20017;-68
2023/07/01 02:04:40;;;;;;;11.27;6.65;;;;;;;15.89;nan;99845.94;5040369;28;20383;-67
2023/07/01 02:07:06;;;;;;;8.38;6.55;;;;;;;15.93;nan;99857.59;5037405;28;20033;-68
2023/07/01 02:09:31;;;;;;;8.25;6.47;;;;;;;15.85;nan;99849.41;5036624;28;20033;-67
2023/07/01 02:11:57;;;;;;;10.07;6.70;;;;;;;15.94;nan;99858.38;5037313;28;20029;-69
2023/07/01 02:14:23;;;;;;;9.45;6.80;;;;;;;15.93;nan;99857.59;5038896;28;20092;-68
2023/07/01 02:16:49;;;;;;;10.73;6.60;;;;;;;15.80;nan;99841.47;5040221;28;20025;-67
2023/07/01 02:19:14;;;;;;;10.35;6.20;;;;;;;15.86;nan;99854.44;5039634;28;20388;-67
2023/07/01 02:21:40;;;;;;;10.15;7.05;;;;;;;15.83;nan;99855.00;5037284;28;20021;-67
2023/07/01 02:24:05;;;;;;;7.68;6.63;;;;;;;15.83;nan;99848.91;5036207;28;20539;-66
2023/07/01 02:26:31;;;;;;;8.95;6.07;;;;;;;15.83;nan;99843.59;5037559;28;20037;-67
2023/07/01 02:28:56;;;;;;;8.45;6.50;;;;;;;15.79;nan;99840.69;5037004;28;20102;-66
2023/07/01 02:31:21;;;;;;;9.40;6.63;;;;;;;15.78;nan;99847.06;5035555;28;20068;-66
2023/07/01 02:33:49;;;;;;;9.18;6.22;;;;;;;15.73;nan;99839.91;5039478;28;20046;-67
2023/07/01 02:36:15;;;;;;;9.75;6.70;;;;;;;15.73;nan;99844.44;5038251;28;20017;-67
2023/07/01 02:38:40;;;;;;;8.10;6.53;;;;;;;15.71;nan;99863.28;5036603;28;20025;-67
2023/07/01 02:41:06;;;;;;;7.78;6.35;;;;;;;15.69;nan;99843.38;5035463;28;20029;-69
2023/07/01 02:43:31;;;;;;;7.43;6.18;;;;;;;15.59;nan;99851.38;5037584;28;20017;-66
2023/07/01 02:45:56;;;;;;;8.27;6.80;;;;;;;15.56;nan;99838.63;5038758;28;20028;-67
2023/07/01 02:48:22;;;;;;;8.35;6.55;;;;;;;15.56;nan;99855.34;5035137;28;20022;-67
2023/07/01 02:50:47;;;;;;;11.68;6.70;;;;;;;15.50;nan;99836.00;5037616;28;20048;-68
2023/07/01 02:53:12;;;;;;;9.52;6.47;;;;;;;15.50;nan;99843.16;5037578;28;20014;-69
2023/07/01 02:55:38;;;;;;;9.93;6.50;;;;;;;15.49;nan;99849.53;5038728;28;20020;-68
2023/07/01 02:58:04;;;;;;;10.18;6.35;;;;;;;15.51;nan;99856.16;5037036;28;20016;-68
2023/07/01 03:00:29;;;;;;;8.20;6.25;;;;;;;15.50;nan;99846.59;5036850;28;20029;-65
2023/07/01 03:03:05;;;;;;;11.25;5.93;;;;;;;15.42;nan;99841.06;5034446;28;20062;-68
2023/07/01 03:05:35;;;;;;;10.18;6.45;;;;;;;15.35;nan;99828.09;5038085;28;20108;-67
2023/07/01 03:08:01;;;;;;;9.38;6.40;;;;;;;15.40;nan;99846.66;5037522;28;20036;-68
2023/07/01 03:10:27;;;;;;;10.13;6.05;;;;;;;15.35;nan;99837.88;5039806;28;20520;-67
2023/07/01 03:12:53;;;;;;;7.95;5.97;;;;;;;15.36;nan;99837.63;5036155;28;20460;-66
2023/07/01 03:15:19;;;;;;;8.57;5.63;;;;;;;15.38;nan;99843.47;5037472;28;20021;-67
2023/07/01 03:17:44;;;;;;;12.48;5.88;;;;;;;15.36;nan;99829.69;5037816;28;20010;-67
2023/07/01 03:20:22;;;;;;;10.80;6.70;;;;;;;15.33;nan;99827.56;5035170;28;20025;-67
2023/07/01 03:22:49;;;;;;;16.42;6.57;;;;;;;15.36;nan;99834.97;5052336;28;20112;-67
2023/07/01 03:25:15;;;;;;;9.02;6.10;;;;;;;15.14;nan;99800.03;5041630;28;20025;-67
2023/07/01 03:27:41;;;;;;;10.20;5.80;;;;;;;15.37;nan;99844.53;5035922;28;20099;-68
2023/07/01 03:30:13;;;;;;;13.55;8.95;;;;;;;15.39;nan;99841.59;5037118;28;20112;-68
2023/07/01 03:32:39;;;;;;;12.35;6.55;;;;;;;15.32;nan;99831.28;5036005;28;20017;-68
2023/07/01 03:35:05;;;;;;;10.02;6.00;;;;;;;15.44;nan;99849.53;5037668;28;20017;-68
2023/07/01 03:37:30;;;;;;;10.00;6.03;;;;;;;15.39;nan;99849.56;5037704;28;20071;-68
2023/07/01 03:39:56;;;;;;;9.23;6.13;;;;;;;15.45;nan;99854.59;5037211;28;20028;-69
2023/07/01 03:42:21;;;;;;;8.30;6.43;;;;;;;15.49;nan;99853.00;5035617;28;20035;-68
2023/07/01 03:44:47;;;;;;;8.43;6.53;;;;;;;15.48;nan;99842.63;5040937;28;20104;-68
2023/07/01 03:47:13;;;;;;;11.38;6.22;;;;;;;15.52;nan;99841.03;5035501;28;20508;-68
2023/07/01 03:49:38;;;;;;;11.18;6.18;;;;;;;15.57;nan;99845.53;5036211;28;20430;-68
2023/07/01 03:52:04;;;;;;;8.25;5.88;;;;;;;15.65;nan;99843.09;5038046;28;20023;-67
2023/07/01 03:54:29;;;;;;;9.40;5.90;;;;;;;15.73;nan;99844.44;5033306;28;20041;-68
2023/07/01 03:56:55;;;;;;;12.00;6.07;;;;;;;15.78;nan;99836.44;5036103;28;20025;-67
2023/07/01 03:59:20;;;;;;;7.72;6.00;;;;;;;15.88;nan;99844.34;5035291;28;20082;-67
2023/07/01 04:01:45;;;;;;;11.90;5.75;;;;;;;15.97;nan;99852.56;5039662;28;20104;-67
2023/07/01 04:04:11;;;;;;;8.82;6.30;;;;;;;16.06;nan;99850.09;5035620;28;20052;-66
2023/07/01 04:06:36;;;;;;;11.05;5.82;;;;;;;16.14;nan;99852.97;5038804;28;20034;-66
2023/07/01 04:09:02;;;;;;;9.27;5.90;;;;;;;16.26;nan;99851.84;5036931;28;20025;-66
2023/07/01 04:11:27;;;;;;;8.15;6.05;;;;;;;16.31;nan;99851.81;5034971;28;20073;-67
2023/07/01 04:13:53;;;;;;;10.18;5.53;;;;;;;16.35;nan;99848.34;5036741;28;20108;-66
2023/07/01 04:16:18;;;;;;;11.45;6.30;;;;;;;16.47;nan;99857.81;5035216;28;20071;-67
2023/07/01 04:18:43;;;;;;;10.20;6.47;;;;;;;16.57;nan;99855.88;5035480;28;20017;-67
2023/07/01 04:21:09;;;;;;;9.00;5.88;;;;;;;16.55;nan;99855.34;5033452;28;20040;-68
2023/07/01 04:23:35;;;;;;;10.32;5.88;;;;;;;16.60;nan;99851.88;5035673;28;20453;-68
2023/07/01 04:26:00;;;;;;;9.18;5.88;;;;;;;16.59;nan;99848.41;5034696;28;20538;-68
2023/07/01 04:28:26;;;;;;;9.05;5.75;;;;;;;16.68;nan;99853.13;5035845;28;20025;-68
2023/07/01 04:30:51;;;;;;;11.15;5.88;;;;;;;16.76;nan;99860.50;5032135;28;20043;-68
2023/07/01 04:33:16;;;;;;;13.63;5.85;;;;;;;16.80;nan;99854.38;5034798;28;20048;-67
2023/07/01 04:35:42;;;;;;;11.05;5.38;;;;;;;16.92;nan;99871.81;5033591;28;20032;-67
2023/07/01 04:38:07;;;;;;;8.25;5.72;;;;;;;16.94;nan;99857.19;5038288;28;20028;-67
2023/07/01 04:40:32;;;;;;;12.50;5.75;;;;;;;16.98;nan;99865.41;5066804;28;20030;-67
2023/07/01 04:42:58;;;;;;;6.60;5.05;;;;;;;16.98;nan;99852.09;5034595;28;20021;-68
2023/07/01 04:45:23;;;;;;;9.77;5.25;;;;;;;17.06;nan;99856.00;5035129;28;20020;-68
2023/07/01 04:47:49;;;;;;;10.60;5.72;;;;;;;17.14;nan;99861.53;5036222;28;20025;-68
2023/07/01 04:50:14;;;;;;;13.82;5.65;;;;;;;17.23;nan;99859.81;5034273;28;20043;-68
2023/07/01 04:52:39;;;;;;;10.38;5.30;;;;;;;17.32;nan;99856.53;5035800;28;20137;-68
2023/07/01 04:55:05;;;;;;;9.82;5.75;;;;;;;17.38;nan;99858.88;5032218;28;20019;-69
2023/07/01 04:57:31;;;;;;;9.02;5.07;;;;;;;17.43;nan;99856.16;5037512;28;20116;-66
2023/07/01 04:59:56;;;;;;;8.52;5.40;;;;;;;;;;5035558;28;20104;-67
2023/07/01 05:02:23;;;;;;;11.47;5.57;;;;;;;;;;5036129;28;20026;-67
2023/07/01 05:04:48;;;;;;;7.95;5.43;;;;;;;17.64;nan;99848.69;5042359;28;20255;-67
2023/07/01 05:07:13;;;;;;;11.32;5.47;;;;;;;;;;5035961;28;20035;-67
2023/07/01 05:09:39;;;;;;;7.03;5.50;;;;;;;;;;5037813;28;20138;-69
2023/07/01 05:12:04;;;;;;;6.83;5.43;;;;;;;;;;5038863;28;20025;-67
2023/07/01 05:14:29;;;;;;;6.72;5.25;;;;;;;;;;5036846;28;20021;-68
2023/07/01 05:16:55;;;;;;;8.23;5.33;;;;;;;;;;5036795;28;20037;-67
2023/07/01 05:19:20;;;;;;;8.30;5.10;;;;;;;;;;5035760;28;20037;-67
2023/07/01 05:21:52;;;;;;;9.47;5.13;;;;;;;;;;5036777;28;20479;-68
2023/07/01 05:24:17;;;;;;;8.48;5.03;;;;;;;;;;5035300;28;20467;-67
2023/07/01 05:26:51;;;;;;;10.95;5.60;;;;;;;18.60;nan;99817.53;5035526;28;20033;-66
2023/07/01 05:29:24;;;;;;;9.70;5.57;;;;;;;18.76;nan;99872.22;5035297;28;20021;-66
2023/07/01 05:31:50;;;;;;;9.65;4.90;;;;;;;18.84;nan;99874.25;5036343;28;20033;-67
2023/07/01 05:34:16;;;;;;;7.80;5.63;;;;;;;;;;5032658;28;20025;-67
2023/07/01 05:36:42;;;;;;;7.90;5.70;;;;;;;19.05;nan;99823.16;5033708;28;20024;-67
2023/07/01 05:39:07;;;;;;;7.75;5.65;;;;;;;19.07;nan;99866.38;5033172;28;20026;-67
2023/07/01 05:41:33;;;;;;;12.95;5.60;;;;;;;19.23;nan;99794.81;5037072;28;20372;-67
2023/07/01 05:43:58;;;;;;;10.88;5.45;;;;;;;19.40;nan;99808.34;5040398;28;20487;-66
2023/07/01 05:46:24;;;;;;;8.25;5.55;;;;;;;19.51;nan;99806.25;5034611;28;20029;-67
2023/07/01 05:48:49;;;;;;;9.60;5.65;;;;;;;19.56;nan;99867.56;5035503;28;20025;-67
2023/07/01 05:51:15;;;;;;;10.73;5.88;;;;;;;19.59;nan;99796.75;5033553;28;20025;-68
2023/07/01 05:53:40;;;;;;;8.38;5.75;;;;;;;19.72;nan;99812.00;5035988;28;20020;-66
2023/07/01 05:56:05;;;;;;;11.65;5.47;;;;;;;19.78;nan;99810.81;5036577;28;20415;-66
2023/07/01 05:58:31;;;;;;;7.65;5.35;;;;;;;19.90;nan;99804.94;5038716;28;20028;-67
2023/07/01 06:00:56;;;;;;;7.63;5.22;;;;;;;;;;5035731;28;20017;-68
2023/07/01 06:03:21;;;;;;;10.10;5.93;;;;;;;;;;5036237;28;20554;-67
2023/07/01 06:05:47;;;;;;;11.43;5.85;;;;;;;20.18;nan;99755.63;5033471;28;20029;-66
2023/07/01 06:08:12;;;;;;;8.27;5.47;;;;;;;;;;5034446;28;20065;-67
2023/07/01 06:10:37;;;;;;;11.02;5.75;;;;;;;20.42;nan;99799.94;5034920;28;20053;-66
2023/07/01 06:13:03;;;;;;;12.27;5.95;;;;;;;20.48;nan;99809.44;5035085;28;20022;-67
2023/07/01 06:15:28;;;;;;;8.00;5.05;;;;;;;20.62;nan;99790.69;5033960;28;20029;-70
2023/07/01 06:17:54;;;;;;;6.97;5.22;;;;;;;20.74;nan;99763.34;5034736;28;20029;-68
2023/07/01 06:20:19;;;;;;;9.35;5.50;;;;;;;20.86;nan;99939.41;5034463;28;20021;-67
2023/07/01 06:22:44;;;;;;;6.55;5.25;;;;;;;20.89;nan;99799.63;5034854;28;20467;-67
2023/07/01 06:25:10;;;;;;;6.32;5.68;;;;;;;20.97;nan;99834.47;5037152;28;20021;-67
2023/07/01 06:27:36;;;;;;;8.10;5.20;;;;;;;21.11;nan;99801.44;5034651;28;20028;-66
2023/07/01 06:30:03;;;;;;;7.60;5.57;;;;;;;21.29;nan;99810.31;5032208;28;20025;-66
2023/07/01 06:32:28;;;;;;;5.75;5.18;;;;;;;;;;5034926;28;20552;-67
2023/07/01 06:34:54;;;;;;;11.63;5.35;;;;;;;21.36;nan;99781.19;5038286;28;20136;-67
2023/07/01 06:37:19;;;;;;;8.90;5.17;;;;;;;21.53;nan;99813.41;5040555;28;20033;-67
2023/07/01 06:39:44;;;;;;;7.35;5.18;;;;;;;21.67;nan;99802.56;5036975;28;20265;-68
2023/07/01 06:42:10;;;;;;;5.30;4.80;;;;;;;;;;5035638;28;20028;-67
2023/07/01 06:44:35;;;;;;;12.77;5.20;;;;;;;21.98;nan;99786.31;5053370;28;20018;-68
2023/07/01 06:47:01;;;;;;;8.35;4.80;;;;;;;22.03;nan;99780.03;5041191;28;20033;-68
2023/07/01 06:49:26;;;;;;;10.63;5.00;;;;;;;22.22;nan;99809.19;5037856;28;20498;-68
2023/07/01 06:51:51;;;;;;;9.05;5.40;;;;;;;;;;5037200;28;20531;-68
2023/07/01 06:54:17;;;;;;;7.77;4.93;;;;;;;22.42;nan;99821.19;5037905;28;20032;-68
2023/07/01 06:56:42;;;;;;;11.82;5.32;;;;;;;;;;5038158;28;20569;-68
2023/07/01 06:59:07;;;;;;;6.55;4.97;;;;;;;22.58;nan;99760.53;5035780;28;20048;-68
2023/07/01 07:01:33;;;;;;;5.88;4.80;;;;;;;;;;5038409;28;20032;-68
2023/07/01 07:03:58;;;;;;;8.43;5.60;;;;;;;22.89;nan;99775.56;5037840;28;20049;-68
2023/07/01 07:06:23;;;;;;;5.63;5.10;;;;;;;22.98;nan;99776.34;5036712;28;20293;-68
2023/07/01 07:08:49;;;;;;;7.13;5.00;;;;;;;23.12;nan;99766.16;5040968;28;20483;-69
2023/07/01 07:11:14;;;;;;;8.77;4.90;;;;;;;23.24;nan;99792.31;5038128;28;20290;-69
2023/07/01 07:13:39;;;;;;;8.50;5.03;;;;;;;23.39;nan;99772.16;5037137;28;20466;-67
2023/07/01 07:16:05;;;;;;;6.43;4.80;;;;;;;;;;5033239;28;20037;-69
2023/07/01 07:18:30;;;;;;;9.77;4.83;;;;;;;23.59;nan;99785.97;5037739;28;20025;-69
2023/07/01 07:20:55;;;;;;;7.65;5.13;;;;;;;;;;5037422;28;20415;-67
2023/07/01 07:23:21;;;;;;;10.27;5.00;;;;;;;23.72;nan;99753.44;5043471;28;20017;-68
2023/07/01 07:25:46;;;;;;;5.40;4.85;;;;;;;23.87;nan;99735.16;5038024;28;20018;-68
2023/07/01 07:28:11;;;;;;;8.68;4.55;;;;;;;23.87;nan;99776.28;5034388;28;20033;-68
2023/07/01 07:30:38;;;;;;;10.05;5.28;;;;;;;24.04;nan;99734.19;5037126;28;20021;-66
2023/07/01 07:33:03;;;;;;;5.32;4.82;;;;;;;24.04;nan;99750.34;5036749;28;20025;-68
2023/07/01 07:35:28;;;;;;;7.57;5.10;;;;;;;24.10;nan;99752.50;5037772;28;20027;-67
2023/07/01 07:37:54;;;;;;;10.30;4.80;;;;;;;24.25;nan;99750.28;5037571;28;20024;-67
2023/07/01 07:40:19;;;;;;;7.57;5.18;;;;;;;24.29;nan;99805.03;5035050;28;20742;-67
2023/07/01 07:42:45;;;;;;;6.07;4.45;;;;;;;24.34;nan;99751.00;5037264;28;20028;-67
2023/07/01 07:45:10;;;;;;;8.18;4.95;;;;;;;24.35;nan;99745.28;5036895;28;20493;-68
2023/07/01 07:47:36;;;;;;;7.00;4.93;;;;;;;24.66;nan;99719.00;5036390;28;20037;-68
2023/07/01 07:50:01;;;;;;;6.95;5.07;;;;;;;24.80;nan;99735.59;5043339;28;20041;-67
2023/07/01 07:52:27;;;;;;;4.90;4.45;;;;;;;24.81;nan;99731.81;5038305;28;20021;-68
2023/07/01 07:54:53;;;;;;;6.20;5.20;;;;;;;25.01;nan;99765.13;5039319;28;20078;-67
2023/07/01 07:57:18;;;;;;;7.95;5.00;;;;;;;25.20;nan;99732.25;5036857;28;20060;-68
2023/07/01 07:59:46;;;;;;;9.40;4.70;;;;;;;25.23;nan;99732.34;5034243;28;20033;-66
2023/07/01 08:02:12;;;;;;;7.77;4.90;;;;;;;25.24;nan;99749.31;5039010;28;20442;-68
2023/07/01 08:04:37;;;;;;;5.43;4.90;;;;;;;25.36;nan;99737.72;5034457;28;20013;-68
2023/07/01 08:07:03;;;;;;;6.28;4.85;;;;;;;25.50;nan;99730.06;5036153;28;20116;-67
2023/07/01 08:09:29;;;;;;;6.13;4.85;;;;;;;25.66;nan;99743.56;5036368;28;20028;-67
2023/07/01 08:11:58;;;;;;;7.80;5.00;;;;;;;25.81;nan;99720.47;5036767;28;20044;-68
2023/07/01 08:14:24;;;;;;;5.80;4.70;;;;;;;25.81;nan;99698.91;5038076;28;20017;-68
2023/07/01 08:16:50;;;;;;;6.28;4.70;;;;;;;25.77;nan;99790.53;5035005;28;20025;-68
2023/07/01 08:19:15;;;;;;;6.25;5.40;;;;;;;25.93;nan;99741.25;5032939;28;20013;-67
2023/07/01 08:21:40;;;;;;;5.60;5.00;;;;;;;25.96;nan;99692.81;5037524;28;20017;-68
2023/07/01 08:24:09;;;;;;;7.40;4.93;;;;;;;26.02;nan;99764.25;5035105;28;20017;-67
2023/07/01 08:26:34;;;;;;;5.95;5.35;;;;;;;26.08;nan;99784.47;5035330;28;20562;-67
2023/07/01 08:28:59;;;;;;;5.80;5.07;;;;;;;26.11;nan;99756.00;5037614;28;20068;-68
2023/07/01 08:31:25;;;;;;;7.20;5.10;;;;;;;26.12;nan;99729.81;5035271;28;20057;-67
2023/07/01 08:33:50;;;;;;;7.57;4.70;;;;;;;26.22;nan;99723.94;5036792;28;20017;-68
2023/07/01 08:36:16;;;;;;;5.80;4.88;;;;;;;26.26;nan;99679.66;5038139;28;20048;-69
2023/07/01 08:38:41;;;;;;;5.72;4.80;;;;;;;26.31;nan;99729.91;5034391;28;20023;-70
2023/07/01 08:41:10;;;;;;;6.45;5.10;;;;;;;26.42;nan;99766.06;5032671;28;20079;-70
2023/07/01 08:43:38;;;;;;;5.72;5.20;;;;;;;26.50;nan;99730.00;5032605;28;20053;-71
2023/07/01 08:46:04;;;;;;;9.50;5.53;;;;;;;26.48;nan;99723.38;5037741;28;20098;-68
2023/07/01 08:48:32;;;;;;;7.40;5.10;;;;;;;26.65;nan;99727.69;5034177;28;20041;-70
2023/07/01 08:51:25;;;;;;;5.53;4.97;;;;;;;26.67;nan;99739.72;5035313;28;20401;-67
2023/07/01 08:53:52;;;;;;;6.38;5.03;;;;;;;26.80;nan;99740.41;5041018;28;20138;-69
2023/07/01 08:56:21;;;;;;;10.63;4.97;;;;;;;26.83;nan;99736.22;5033146;28;20021;-68
2023/07/01 08:58:48;;;;;;;8.40;4.82;;;;;;;26.84;nan;99740.47;5038205;28;20025;-68
2023/07/01 09:01:18;;;;;;;5.50;4.35;;;;;;;26.87;nan;99783.03;5033563;28;20626;-68
2023/07/01 09:03:46;;;;;;;6.53;5.00;;;;;;;26.89;nan;99738.31;5036985;28;20074;-69
2023/07/01 09:06:11;;;;;;;5.32;4.53;;;;;;;26.92;nan;99748.41;5032175;28;20041;-69
2023/07/01 09:08:40;;;;;;;5.50;4.20;;;;;;;26.98;nan;99734.63;5034313;28;20063;-69
2023/07/01 09:11:09;;;;;;;8.73;4.55;;;;;;;27.00;nan;99722.31;5035751;28;20103;-69
2023/07/01 09:13:34;;;;;;;6.28;4.53;;;;;;;27.06;nan;99745.25;5036365;28;20025;-69
2023/07/01 09:16:00;;;;;;;4.63;3.77;;;;;;;27.09;nan;99728.31;5034343;28;20499;-69
2023/07/01 09:18:28;;;;;;;4.47;4.00;;;;;;;27.26;nan;99723.69;5034478;28;20266;-69
2023/07/01 09:20:54;;;;;;;5.93;4.25;;;;;;;27.27;nan;99701.72;5036175;28;20025;-69
2023/07/01 09:23:36;;;;;;;11.82;4.03;;;;;;;27.30;nan;99722.63;5033979;28;20112;-69
2023/07/01 09:26:15;;;;;;;4.68;3.83;;;;;;;27.39;nan;99711.59;5034508;28;20488;-69
2023/07/01 09:28:42;;;;;;;;;;;;;;;27.43;nan;99714.38;5049829;28;20044;-70
2023/07/01 09:31:09;;;;;;;5.72;3.83;;;;;;;27.42;nan;99702.03;5037113;28;19984;-69
2023/07/01 09:33:35;;;;;;;4.82;3.88;;;;;;;27.41;nan;99687.69;5036056;28;20014;-68
2023/07/01 09:36:02;;;;;;;7.68;4.38;;;;;;;27.43;nan;99646.78;5032318;28;20045;-68
2023/07/01 09:38:28;;;;;;;4.25;3.85;;;;;;;27.43;nan;99749.53;5037195;28;20087;-70
2023/07/01 09:40:53;;;;;;;5.28;4.65;;;;;;;;;;5036859;28;20380;-69
2023/07/01 09:43:19;;;;;;;5.90;4.00;;;;;;;27.53;nan;99695.66;5034992;28;20082;-68
2023/07/01 09:45:55;;;;;;;5.93;3.97;;;;;;;27.53;nan;99686.78;5035442;28;20048;-68
2023/07/01 09:48:21;;;;;;;6.20;4.00;;;;;;;27.70;nan;99699.06;5033597;28;20641;-70
2023/07/01 09:50:48;;;;;;;6.32;4.03;;;;;;;27.78;nan;99706.97;5042049;28;20051;-69
2023/07/01 09:53:21;;;;;;;5.15;4.40;;;;;;;27.87;nan;99703.28;5035839;28;20078;-69
2023/07/01 09:55:48;;;;;;;4.60;4.20;;;;;;;27.98;nan;99720.50;5033392;28;20029;-69
2023/07/01 09:58:15;;;;;;;6.38;4.32;;;;;;;28.05;nan;99712.50;5033069;28;20384;-69
2023/07/01 10:00:41;;;;;;;7.53;4.57;;;;;;;27.97;nan;99700.00;5036001;28;20039;-70
2023/07/01 10:03:07;;;;;;;7.10;4.38;;;;;;;28.02;nan;99699.72;5035601;28;20037;-70
2023/07/01 10:05:33;;;;;;;6.07;4.03;;;;;;;28.04;nan;99705.56;5035997;28;20018;-70
2023/07/01 10:07:59;;;;;;;8.15;4.45;;;;;;;28.12;nan;99688.28;5039122;28;20492;-69
2023/07/01 10:10:25;;;;;;;5.53;4.10;;;;;;;28.19;nan;99709.28;5039838;28;20049;-70
2023/07/01 10:12:52;;;;;;;6.85;4.38;;;;;;;28.21;nan;99680.69;5042212;28;20048;-69
2023/07/01 10:15:30;;;;;;;4.80;4.03;;;;;;;28.26;nan;99678.84;5035488;28;20108;-69
2023/07/01 10:17:57;;;;;;;4.57;4.03;;;;;;;28.31;nan;99692.84;5038391;28;20453;-69
2023/07/01 10:20:26;;;;;;;7.90;4.30;;;;;;;28.35;nan;99692.91;5038574;28;20013;-69
2023/07/01 10:22:56;;;;;;;8.93;4.28;;;;;;;28.40;nan;99693.41;5040322;28;20026;-69
2023/07/01 10:25:41;;;;;;;6.05;3.92;;;;;;;28.48;nan;99683.47;5037464;28;20622;-70
2023/07/01 10:28:11;;;;;;;4.93;4.50;;;;;;;28.53;nan;99690.50;5035328;28;20056;-70
2023/07/01 10:31:08;;;;;;;4.80;4.22;;;;;;;28.52;nan;99673.50;5040911;28;20355;-70
2023/07/01 10:33:35;;;;;;;4.10;3.70;;;;;;;28.55;nan;99688.22;5030969;28;20095;-70
2023/07/01 10:36:10;;;;;;;3.90;3.50;;;;;;;28.55;nan;99671.97;5038588;28;20033;-69
2023/07/01 10:38:37;;;;;;;6.60;3.80;;;;;;;28.54;nan;99679.31;5038289;28;20107;-69
2023/07/01 10:41:03;;;;;;;4.95;3.50;;;;;;;28.55;nan;99664.63;5037508;28;20656;-69
2023/07/01 10:43:32;;;;;;;7.30;3.92;;;;;;;28.61;nan;99682.16;5037859;28;20719;-70
2023/07/01 10:46:21;;;;;;;4.20;3.17;;;;;;;28.65;nan;99679.47;5039715;28;20070;-69
2023/07/01 10:49:02;;;;;;;5.38;4.18;;;;;;;28.64;nan;99677.94;5041523;28;20037;-70
2023/07/01 10:51:28;;;;;;;4.82;4.30;;;;;;;28.58;nan;99690.97;5040849;28;20144;-69
2023/07/01 10:54:05;;;;;;;4.85;4.32;;;;;;;28.56;nan;99638.31;5040677;28;20021;-69
2023/07/01 10:56:33;;;;;;;4.65;4.25;;;;;;;28.56;nan;99712.22;5069395;28;20006;-69
2023/07/01 10:59:31;;;;;;;7.43;4.20;;;;;;;28.59;nan;99664.69;5038863;28;20033;-70
2023/07/01 11:01:59;;;;;;;6.03;4.03;;;;;;;28.58;nan;99644.94;4998541;28;20086;-68
2023/07/01 11:04:44;;;;;;;6.07;3.93;;;;;;;28.60;nan;99644.56;5037055;28;20028;-70
2023/07/01 11:07:10;;;;;;;6.28;4.20;;;;;;;28.63;nan;99633.00;5036476;28;20026;-70
2023/07/01 11:09:35;;;;;;;4.30;3.85;;;;;;;28.71;nan;99607.59;5035302;28;20022;-69
2023/07/01 11:12:04;;;;;;;5.43;4.30;;;;;;;28.76;nan;99633.59;5038681;28;20013;-69
2023/07/01 11:14:47;;;;;;;5.40;3.90;;;;;;;28.90;nan;99654.66;5040126;28;20796;-69
2023/07/01 11:17:15;;;;;;;4.82;3.88;;;;;;;28.91;nan;99631.84;5036931;28;20087;-69
2023/07/01 11:19:41;;;;;;;6.88;4.15;;;;;;;29.00;nan;99622.28;5034866;28;20018;-68
2023/07/01 11:22:11;;;;;;;6.18;3.95;;;;;;;29.05;nan;99664.56;5035159;28;20013;-69
2023/07/01 11:24:37;;;;;;;5.63;3.97;;;;;;;29.11;nan;99652.25;5037655;28;20032;-70
2023/07/01 11:27:04;;;;;;;8.90;4.47;;;;;;;29.17;nan;99631.03;5044669;28;20402;-69
2023/07/01 11:29:30;;;;;;;5.47;4.20;;;;;;;;;;5035538;28;20071;-70
2023/07/01 11:32:03;;;;;;;4.40;4.00;;;;;;;29.21;nan;99634.56;5037379;28;20025;-69
2023/07/01 11:34:29;;;;;;;6.15;4.18;;;;;;;29.27;nan;99619.53;5037820;28;20396;-70
2023/07/01 11:36:55;;;;;;;5.18;4.05;;;;;;;29.34;nan;99618.84;5037058;28;20060;-69
2023/07/01 11:39:21;;;;;;;10.50;4.63;;;;;;;29.30;nan;99597.09;5034936;28;20167;-69
2023/07/01 11:41:59;;;;;;;5.07;4.28;;;;;;;29.36;nan;99633.56;5035639;28;20183;-69
2023/07/01 11:44:29;;;;;;;5.45;4.55;;;;;;;29.47;nan;99629.06;5037495;28;20460;-69
2023/07/01 11:46:55;;;;;;;6.07;4.15;;;;;;;29.53;nan;99569.81;5033207;28;20034;-70
2023/07/01 11:49:21;;;;;;;5.72;4.65;;;;;;;29.64;nan;99621.44;5034545;28;20479;-67
2023/07/01 11:51:50;;;;;;;6.07;4.47;;;;;;;29.68;nan;99623.06;5035905;28;20022;-69
2023/07/01 11:54:18;;;;;;;7.40;4.50;;;;;;;29.75;nan;99630.50;5036709;28;20302;-69
2023/07/01 11:56:44;;;;;;;6.23;4.50;;;;;;;29.80;nan;99603.03;5042795;28;20103;-69
2023/07/01 11:59:10;;;;;;;6.00;4.60;;;;;;;29.87;nan;99607.75;5037947;28;20036;-67